createdAt,value
2023-05-04T00:02:03.762Z,87.55
2023-05-04T00:04:30.433Z,87.07
2023-05-04T00:06:57.095Z,87.06
2023-05-04T00:09:23.735Z,87.16
2023-05-04T00:11:50.363Z,86.96
2023-05-04T00:14:17.096Z,86.85
2023-05-04T00:16:44.331Z,86.42
2023-05-04T00:19:11.206Z,86.85
2023-05-04T00:21:38.008Z,86.12
2023-05-04T00:24:05.053Z,86.03
2023-05-04T00:26:31.675Z,86.39
2023-05-04T00:28:58.366Z,86.44
2023-05-04T00:31:25.035Z,86.63
2023-05-04T00:33:51.720Z,86.60
2023-05-04T00:36:18.895Z,86.72
2023-05-04T00:38:54.762Z,87.02
2023-05-04T00:41:22.297Z,87.05
2023-05-04T00:43:49.204Z,87.10
2023-05-04T00:46:16.045Z,87.34
2023-05-04T00:48:45.923Z,87.36
2023-05-04T00:51:14.775Z,87.57
2023-05-04T00:53:41.736Z,87.91
2023-05-04T00:56:09.049Z,88.19
2023-05-04T00:58:35.941Z,88.47
2023-05-04T01:01:04.071Z,89.23
2023-05-04T01:03:31.911Z,88.87
2023-05-04T01:06:16.295Z,89.66
2023-05-04T01:08:50.781Z,89.72
2023-05-04T01:11:32.214Z,90.16
2023-05-04T01:14:01.895Z,90.18
2023-05-04T01:16:29.643Z,90.09
2023-05-04T01:18:56.378Z,90.65
2023-05-04T01:21:23.087Z,91.24
2023-05-04T01:23:50.678Z,90.92
2023-05-04T01:26:25.354Z,91.58
2023-05-04T01:29:22.187Z,91.90
2023-05-04T01:31:50.932Z,92.80
2023-05-04T01:34:18.846Z,93.00
2023-05-04T01:36:46.267Z,93.56
2023-05-04T01:39:12.942Z,93.81
2023-05-04T01:41:39.625Z,93.53
2023-05-04T01:44:06.304Z,93.54
2023-05-04T01:46:33.072Z,93.73
2023-05-04T01:48:59.867Z,94.10
2023-05-04T01:51:26.736Z,94.17
2023-05-04T01:53:53.337Z,94.25
2023-05-04T01:56:20.504Z,94.18
2023-05-04T01:58:47.229Z,94.79
2023-05-04T02:01:13.972Z,95.05
2023-05-04T02:03:41.093Z,95.75
2023-05-04T02:06:09.702Z,96.20
2023-05-04T02:08:36.369Z,96.59
2023-05-04T02:11:03.070Z,96.80
2023-05-04T02:13:29.738Z,96.72
2023-05-04T02:15:56.414Z,97.19
2023-05-04T02:18:23.089Z,97.22
2023-05-04T02:20:49.888Z,97.84
2023-05-04T02:23:16.654Z,97.76
2023-05-04T02:25:43.363Z,98.47
2023-05-04T02:28:10.126Z,97.94
2023-05-04T02:30:37.368Z,98.19
2023-05-04T02:33:04.590Z,98.95
2023-05-04T02:35:31.429Z,98.89
2023-05-04T02:37:58.120Z,99.79
2023-05-04T02:40:25.014Z,99.71
2023-05-04T02:42:51.943Z,99.82
2023-05-04T02:45:18.726Z,100.00
2023-05-04T02:47:45.525Z,100.00
2023-05-04T02:50:12.203Z,100.00
2023-05-04T02:52:39.079Z,100.00
2023-05-04T02:55:06.751Z,100.00
2023-05-04T02:57:33.765Z,100.00
2023-05-04T03:00:00.485Z,100.00
2023-05-04T03:02:27.267Z,100.00
2023-05-04T03:04:54.026Z,100.00
2023-05-04T03:07:20.822Z,100.00
2023-05-04T03:09:48.036Z,100.00
2023-05-04T03:12:14.855Z,100.00
2023-05-04T03:14:42.460Z,100.00
2023-05-04T03:17:09.101Z,100.00
2023-05-04T03:19:36.685Z,100.00
2023-05-04T03:22:04.176Z,100.00
2023-05-04T03:24:30.991Z,100.00
2023-05-04T03:26:57.802Z,100.00
2023-05-04T03:29:24.887Z,100.00
2023-05-04T03:31:52.359Z,100.00
2023-05-04T03:34:21.719Z,100.00
2023-05-04T03:36:53.175Z,100.00
2023-05-04T03:39:19.803Z,100.00
2023-05-04T03:41:46.635Z,100.00
2023-05-04T03:44:13.444Z,100.00
2023-05-04T03:46:40.289Z,100.00
2023-05-04T03:49:07.047Z,100.00
2023-05-04T03:51:33.704Z,100.00
2023-05-04T03:54:01.482Z,100.00
2023-05-04T03:56:28.340Z,100.00
2023-05-04T03:58:57.072Z,100.00
2023-05-04T04:01:27.603Z,100.00
2023-05-04T04:03:54.517Z,100.00
2023-05-04T04:06:22.549Z,100.00
2023-05-04T04:08:49.353Z,100.00
2023-05-04T04:11:16.056Z,100.00
2023-05-04T04:13:42.702Z,100.00
2023-05-04T04:16:09.401Z,100.00
2023-05-04T04:18:36.105Z,100.00
2023-05-04T04:21:03.513Z,100.00
2023-05-04T04:23:30.155Z,100.00
2023-05-04T04:25:56.816Z,100.00
2023-05-04T04:28:23.488Z,100.00
2023-05-04T04:30:50.117Z,100.00
2023-05-04T04:33:17.117Z,100.00
2023-05-04T04:35:43.966Z,100.00
2023-05-04T04:38:10.617Z,100.00
2023-05-04T04:40:37.261Z,100.00
2023-05-04T04:43:04.853Z,100.00
2023-05-04T04:45:33.185Z,100.00
2023-05-04T04:48:01.082Z,100.00
2023-05-04T04:50:29.188Z,100.00
2023-05-04T04:52:56.239Z,100.00
2023-05-04T04:55:25.848Z,100.00
2023-05-04T04:57:53.063Z,100.00
2023-05-04T05:00:19.990Z,100.00
2023-05-04T05:02:46.692Z,100.00
2023-05-04T05:05:13.578Z,100.00
2023-05-04T05:07:40.423Z,100.00
2023-05-04T05:10:08.619Z,100.00
2023-05-04T05:12:35.844Z,100.00
2023-05-04T05:15:04.497Z,100.00
2023-05-04T05:17:31.479Z,100.00
2023-05-04T05:19:58.196Z,100.00
2023-05-04T05:22:25.115Z,100.00
2023-05-04T05:24:51.888Z,100.00
2023-05-04T05:27:18.495Z,100.00
2023-05-04T05:29:45.690Z,100.00
2023-05-04T05:32:12.338Z,100.00
2023-05-04T05:34:39.127Z,100.00
2023-05-04T05:37:05.859Z,100.00
2023-05-04T05:39:32.467Z,100.00
2023-05-04T05:41:59.342Z,100.00
2023-05-04T05:44:26.169Z,100.00
2023-05-04T05:46:52.768Z,100.00
2023-05-04T05:49:19.469Z,100.00
2023-05-04T05:51:46.217Z,100.00
2023-05-04T05:54:12.946Z,100.00
2023-05-04T05:56:39.584Z,100.00
2023-05-04T05:59:06.509Z,100.00
2023-05-04T06:01:33.333Z,100.00
2023-05-04T06:04:00.334Z,100.00
2023-05-04T06:06:27.243Z,100.00
2023-05-04T06:08:53.849Z,100.00
2023-05-04T06:11:21.313Z,100.00
2023-05-04T06:13:47.952Z,100.00
2023-05-04T06:16:14.770Z,100.00
2023-05-04T06:18:41.516Z,100.00
2023-05-04T06:21:08.838Z,100.00
2023-05-04T06:23:35.507Z,100.00
2023-05-04T06:26:02.501Z,100.00
2023-05-04T06:28:29.103Z,100.00
2023-05-04T06:30:55.757Z,100.00
2023-05-04T06:33:22.410Z,100.00
2023-05-04T06:35:49.122Z,100.00
2023-05-04T06:38:15.815Z,100.00
2023-05-04T06:40:42.472Z,100.00
2023-05-04T06:43:09.131Z,100.00
2023-05-04T06:45:36.420Z,100.00
2023-05-04T06:48:04.300Z,100.00
2023-05-04T06:50:33.123Z,100.00
2023-05-04T06:53:04.499Z,100.00
2023-05-04T06:55:31.805Z,100.00
2023-05-04T06:57:58.558Z,100.00
2023-05-04T07:00:25.661Z,100.00
2023-05-04T07:02:53.695Z,100.00
2023-05-04T07:05:23.913Z,100.00
2023-05-04T07:07:51.382Z,100.00
2023-05-04T07:10:19.583Z,100.00
2023-05-04T07:12:46.990Z,100.00
2023-05-04T07:15:14.063Z,100.00
2023-05-04T07:17:41.086Z,100.00
2023-05-04T07:20:08.501Z,100.00
2023-05-04T07:22:35.418Z,100.00
2023-05-04T07:25:02.242Z,100.00
2023-05-04T07:27:29.013Z,100.00
2023-05-04T07:32:23.317Z,100.00
2023-05-04T07:34:50.180Z,99.90
2023-05-04T07:37:16.944Z,99.08
2023-05-04T07:39:43.705Z,95.85
2023-05-04T07:42:11.727Z,95.07
2023-05-04T07:44:38.449Z,95.73
2023-05-04T07:47:05.425Z,92.98
2023-05-04T07:49:32.085Z,91.16
2023-05-04T07:51:58.939Z,90.42
2023-05-04T07:54:25.808Z,87.75
2023-05-04T07:56:52.420Z,87.45
2023-05-04T07:59:19.130Z,86.84
2023-05-04T08:01:46.557Z,86.40
2023-05-04T08:04:13.452Z,83.20
2023-05-04T08:06:40.460Z,84.53
2023-05-04T08:09:07.106Z,83.61
2023-05-04T08:11:37.909Z,80.85
2023-05-04T08:14:05.272Z,80.58
2023-05-04T08:16:32.421Z,80.16
2023-05-04T08:19:00.069Z,79.21
2023-05-04T08:21:27.377Z,77.24
2023-05-04T08:23:54.450Z,77.95
2023-05-04T08:26:21.201Z,76.16
2023-05-04T08:28:48.461Z,77.51
2023-05-04T08:31:17.002Z,74.16
2023-05-04T08:33:43.753Z,74.78
2023-05-04T08:36:10.813Z,77.61
2023-05-04T08:38:37.494Z,75.08
2023-05-04T08:41:05.223Z,76.14
2023-05-04T08:43:35.835Z,73.98
2023-05-04T08:46:04.025Z,75.66
2023-05-04T08:48:34.887Z,75.42
2023-05-04T08:51:04.372Z,71.07
2023-05-04T08:53:32.785Z,72.08
2023-05-04T08:56:04.217Z,70.08
2023-05-04T08:58:32.985Z,69.87
2023-05-04T09:01:01.567Z,70.30
2023-05-04T09:03:30.339Z,73.17
2023-05-04T09:05:58.349Z,72.65
2023-05-04T09:08:25.101Z,69.51
2023-05-04T09:10:51.819Z,68.66
2023-05-04T09:13:18.651Z,68.53
2023-05-04T09:15:58.884Z,67.33
2023-05-04T09:18:43.991Z,67.02
2023-05-04T09:21:11.712Z,68.68
2023-05-04T09:23:49.263Z,65.78
2023-05-04T09:26:35.155Z,65.38
2023-05-04T09:29:15.400Z,66.02
2023-05-04T09:31:47.378Z,65.32
2023-05-04T09:34:17.202Z,63.51
2023-05-04T09:36:43.936Z,62.38
2023-05-04T09:39:14.869Z,62.28
2023-05-04T09:41:42.702Z,63.04
2023-05-04T09:44:21.379Z,63.23
2023-05-04T09:47:00.489Z,63.96
2023-05-04T09:49:34.699Z,61.71
2023-05-04T09:52:02.973Z,60.13
2023-05-04T09:54:41.274Z,59.01
2023-05-04T09:57:15.562Z,57.57
2023-05-04T09:59:43.514Z,57.75
2023-05-04T10:02:22.150Z,57.48
2023-05-04T10:04:57.290Z,57.11
2023-05-04T10:07:24.925Z,56.31
2023-05-04T10:09:53.301Z,58.18
2023-05-04T10:12:20.007Z,58.63
2023-05-04T10:14:47.234Z,57.30
2023-05-04T10:18:07.440Z,56.61
2023-05-04T10:20:49.357Z,57.27
2023-05-04T10:23:58.193Z,54.50
2023-05-04T10:26:59.527Z,54.42
2023-05-04T10:29:33.316Z,55.33
2023-05-04T10:32:00.698Z,53.09
2023-05-04T10:34:30.111Z,52.62
2023-05-04T10:36:58.224Z,54.95
2023-05-04T10:39:27.976Z,55.14
2023-05-04T10:42:04.093Z,55.41
2023-05-04T10:44:32.869Z,54.06
2023-05-04T10:47:05.573Z,53.27
2023-05-04T10:49:33.980Z,51.22
2023-05-04T10:52:16.254Z,52.14
2023-05-04T10:54:43.681Z,51.94
2023-05-04T10:57:12.633Z,52.83
2023-05-04T10:59:41.321Z,49.72
2023-05-04T11:02:08.501Z,51.20
2023-05-04T11:04:35.820Z,51.03
2023-05-04T11:07:05.499Z,50.70
2023-05-04T11:09:42.627Z,48.73
2023-05-04T11:12:10.805Z,50.17
2023-05-04T11:14:43.270Z,49.78
2023-05-04T11:17:27.555Z,49.41
2023-05-04T11:19:55.246Z,49.47
2023-05-04T11:22:22.116Z,50.29
2023-05-04T11:24:49.114Z,49.48
2023-05-04T11:27:28.578Z,48.85
2023-05-04T11:30:03.571Z,49.44
2023-05-04T11:32:40.769Z,49.00
2023-05-04T11:35:09.599Z,47.93
2023-05-04T11:37:41.347Z,48.84
2023-05-04T11:40:08.838Z,50.14
2023-05-04T11:42:36.363Z,49.81
2023-05-04T11:45:03.626Z,48.24
2023-05-04T11:47:30.605Z,47.59
2023-05-04T11:49:57.292Z,48.74
2023-05-04T11:52:25.798Z,48.18
2023-05-04T11:54:57.292Z,47.96
2023-05-04T11:57:24.009Z,47.79
2023-05-04T11:59:50.910Z,48.90
2023-05-04T12:02:18.202Z,48.08
2023-05-04T12:04:44.872Z,47.96
2023-05-04T12:07:12.691Z,47.79
2023-05-04T12:09:49.461Z,48.77
2023-05-04T12:12:21.328Z,47.55
2023-05-04T12:14:52.082Z,42.75
2023-05-04T12:17:20.566Z,45.25
2023-05-04T12:19:55.370Z,47.42
2023-05-04T12:22:29.470Z,47.30
2023-05-04T12:24:58.749Z,46.95
2023-05-04T12:27:28.991Z,46.79
2023-05-04T12:29:55.830Z,47.76
2023-05-04T12:32:22.522Z,47.32
2023-05-04T12:34:49.388Z,45.15
2023-05-04T12:37:16.225Z,42.82
2023-05-04T12:39:43.052Z,44.12
2023-05-04T12:42:09.741Z,45.35
2023-05-04T12:44:36.447Z,45.93
2023-05-04T12:47:03.382Z,46.07
2023-05-04T12:49:29.990Z,45.88
2023-05-04T12:51:56.684Z,46.01
2023-05-04T12:54:23.402Z,43.54
2023-05-04T12:56:50.029Z,41.66
2023-05-04T12:59:16.718Z,42.94
2023-05-04T13:01:43.463Z,42.15
2023-05-04T13:04:10.283Z,42.63
2023-05-04T13:06:37.003Z,41.61
2023-05-04T13:09:06.000Z,42.38
2023-05-04T13:11:32.856Z,40.67
2023-05-04T13:13:59.765Z,40.52
2023-05-04T13:16:28.180Z,39.96
2023-05-04T13:18:55.596Z,40.16
2023-05-04T13:21:22.508Z,40.29
2023-05-04T13:23:49.451Z,41.15
2023-05-04T13:26:16.184Z,40.90
2023-05-04T13:28:43.178Z,40.01
2023-05-04T13:31:10.533Z,41.13
2023-05-04T13:33:40.276Z,41.77
2023-05-04T13:36:07.207Z,42.27
2023-05-04T13:38:33.858Z,40.55
2023-05-04T13:41:00.560Z,40.96
2023-05-04T13:43:27.983Z,40.55
2023-05-04T13:45:57.065Z,41.69
2023-05-04T13:48:25.757Z,40.73
2023-05-04T13:50:52.785Z,41.75
2023-05-04T13:53:19.449Z,40.98
2023-05-04T13:55:46.693Z,41.22
2023-05-04T13:58:13.357Z,40.83
2023-05-04T14:00:40.133Z,39.87
2023-05-04T14:03:06.937Z,40.25
2023-05-04T14:05:35.601Z,40.20
2023-05-04T14:08:02.927Z,40.20
2023-05-04T14:10:29.599Z,40.16
2023-05-04T14:12:56.410Z,39.94
2023-05-04T14:15:23.249Z,39.65
2023-05-04T14:17:50.442Z,39.90
2023-05-04T14:20:17.349Z,39.44
2023-05-04T14:22:44.392Z,39.55
2023-05-04T14:25:11.286Z,40.17
2023-05-04T14:27:37.974Z,41.27
2023-05-04T14:30:05.262Z,40.76
2023-05-04T14:32:32.008Z,41.21
2023-05-04T14:35:10.240Z,41.49
2023-05-04T14:37:39.607Z,40.84
2023-05-04T14:40:13.304Z,39.57
2023-05-04T14:42:39.934Z,39.48
2023-05-04T14:45:08.304Z,39.56
2023-05-04T14:47:35.471Z,39.29
2023-05-04T14:50:02.364Z,40.41
2023-05-04T14:52:29.159Z,40.08
2023-05-04T14:54:56.204Z,41.25
2023-05-04T14:57:22.966Z,39.98
2023-05-04T14:59:49.590Z,38.89
2023-05-04T15:02:17.685Z,42.25
2023-05-04T15:04:45.295Z,43.30
2023-05-04T15:07:14.375Z,42.19
2023-05-04T15:09:41.041Z,41.88
2023-05-04T15:12:08.722Z,41.62
2023-05-04T15:14:38.712Z,41.56
2023-05-04T15:17:05.461Z,43.25
2023-05-04T15:19:32.125Z,43.85
2023-05-04T15:21:58.751Z,43.83
2023-05-04T15:24:25.492Z,44.74
2023-05-04T15:26:52.182Z,44.05
2023-05-04T15:29:18.873Z,44.55
2023-05-04T15:31:45.683Z,45.73
2023-05-04T15:34:12.409Z,45.25
2023-05-04T15:36:39.059Z,44.63
2023-05-04T15:39:08.189Z,44.57
2023-05-04T15:41:35.620Z,44.65
2023-05-04T15:44:03.078Z,44.66
2023-05-04T15:46:29.785Z,45.39
2023-05-04T15:48:56.536Z,45.05
2023-05-04T15:51:23.218Z,44.71
2023-05-04T15:53:51.771Z,44.53
2023-05-04T15:56:18.488Z,46.40
2023-05-04T15:58:45.340Z,46.41
2023-05-04T16:01:14.582Z,46.50
2023-05-04T16:03:43.376Z,46.16
2023-05-04T16:06:10.139Z,46.13
2023-05-04T16:08:36.998Z,46.15
2023-05-04T16:11:04.480Z,46.30
2023-05-04T16:13:31.433Z,46.22
2023-05-04T16:15:58.169Z,46.00
2023-05-04T16:18:24.807Z,47.02
2023-05-04T16:20:51.676Z,47.50
2023-05-04T16:23:18.273Z,47.20
2023-05-04T16:25:44.960Z,46.88
2023-05-04T16:28:11.758Z,46.70
2023-05-04T16:30:38.507Z,47.49
2023-05-04T16:33:05.486Z,48.03
2023-05-04T16:35:32.288Z,47.61
2023-05-04T16:37:59.283Z,47.98
2023-05-04T16:40:26.696Z,48.56
2023-05-04T16:42:53.362Z,48.18
2023-05-04T16:45:20.597Z,48.22
2023-05-04T16:47:47.341Z,48.56
2023-05-04T16:50:14.474Z,48.63
2023-05-04T16:52:41.666Z,49.40
2023-05-04T16:55:11.796Z,49.61
2023-05-04T16:57:39.168Z,49.75
2023-05-04T17:00:07.090Z,49.57
2023-05-04T17:02:34.245Z,49.43
2023-05-04T17:05:01.185Z,50.00
2023-05-04T17:07:28.512Z,50.01
2023-05-04T17:09:55.190Z,50.37
2023-05-04T17:12:23.387Z,50.61
2023-05-04T17:14:50.204Z,51.43
2023-05-04T17:17:17.097Z,51.61
2023-05-04T17:19:43.727Z,51.47
2023-05-04T17:22:11.256Z,51.69
2023-05-04T17:24:38.056Z,51.34
2023-05-04T17:27:04.787Z,50.77
2023-05-04T17:29:31.568Z,50.58
2023-05-04T17:31:58.295Z,50.46
2023-05-04T17:34:25.107Z,51.17
2023-05-04T17:36:51.853Z,51.28
2023-05-04T17:39:18.819Z,51.00
2023-05-04T17:41:49.061Z,51.20
2023-05-04T17:44:16.454Z,51.50
2023-05-04T17:46:43.732Z,52.17
2023-05-04T17:49:10.686Z,52.19
2023-05-04T17:51:37.461Z,52.42
2023-05-04T17:54:04.107Z,52.48
2023-05-04T17:56:30.779Z,52.54
2023-05-04T17:58:57.469Z,52.87
2023-05-04T18:01:24.175Z,53.25
2023-05-04T18:03:50.989Z,53.28
2023-05-04T18:06:17.717Z,53.42
2023-05-04T18:08:44.508Z,53.67
2023-05-04T18:11:12.072Z,54.07
2023-05-04T18:13:38.712Z,54.30
2023-05-04T18:16:05.630Z,54.66
2023-05-04T18:18:32.290Z,54.88
2023-05-04T18:21:00.753Z,55.17
2023-05-04T18:23:27.489Z,55.78
2023-05-04T18:25:54.142Z,56.12
2023-05-04T18:28:20.774Z,56.38
2023-05-04T18:30:47.610Z,57.01
2023-05-04T18:33:14.258Z,57.34
2023-05-04T18:35:41.023Z,57.33
2023-05-04T18:38:07.691Z,57.93
2023-05-04T18:40:34.357Z,58.40
2023-05-04T18:43:00.958Z,58.91
2023-05-04T18:45:27.994Z,58.96
2023-05-04T18:47:54.764Z,59.34
2023-05-04T18:50:21.569Z,59.49
2023-05-04T18:52:48.188Z,59.66
2023-05-04T18:55:14.842Z,59.80
2023-05-04T18:57:41.568Z,60.11
2023-05-04T19:00:09.385Z,59.95
2023-05-04T19:02:36.793Z,59.88
2023-05-04T19:05:03.671Z,59.97
2023-05-04T19:07:30.348Z,59.82
2023-05-04T19:09:56.984Z,60.13
2023-05-04T19:12:23.996Z,60.24
2023-05-04T19:14:51.230Z,60.14
2023-05-04T19:17:18.615Z,59.95
2023-05-04T19:19:45.350Z,59.65
2023-05-04T19:22:13.388Z,59.37
2023-05-04T19:24:40.045Z,59.30
2023-05-04T19:27:07.410Z,59.15
2023-05-04T19:29:34.169Z,59.27
2023-05-04T19:32:05.676Z,59.48
2023-05-04T19:34:35.411Z,59.45
2023-05-04T19:37:02.192Z,59.49
2023-05-04T19:39:29.438Z,59.42
2023-05-04T19:41:56.104Z,59.67
2023-05-04T19:44:22.831Z,59.77
2023-05-04T19:46:51.625Z,60.12
2023-05-04T19:49:18.368Z,60.23
2023-05-04T19:51:44.971Z,60.42
2023-05-04T19:54:11.857Z,60.79
2023-05-04T19:56:38.511Z,60.97
2023-05-04T19:59:05.249Z,61.32
2023-05-04T20:01:31.867Z,61.41
2023-05-04T20:03:58.506Z,62.38
2023-05-04T20:06:25.127Z,62.05
2023-05-04T20:08:51.840Z,61.81
2023-05-04T20:11:18.587Z,62.01
2023-05-04T20:13:45.598Z,61.76
2023-05-04T20:16:13.144Z,61.85
2023-05-04T20:18:39.856Z,61.94
2023-05-04T20:21:06.640Z,62.13
2023-05-04T20:23:33.280Z,62.04
2023-05-04T20:25:59.969Z,62.16
2023-05-04T20:28:26.688Z,62.05
2023-05-04T20:30:53.334Z,62.30
2023-05-04T20:33:19.983Z,62.38
2023-05-04T20:35:46.618Z,62.66
2023-05-04T20:38:13.603Z,62.73
2023-05-04T20:40:40.230Z,62.76
2023-05-04T20:43:06.838Z,63.08
2023-05-04T20:45:34.304Z,63.33
2023-05-04T20:48:01.379Z,63.38
2023-05-04T20:50:28.020Z,63.48
2023-05-04T20:52:54.784Z,63.44
2023-05-04T20:55:21.537Z,63.76
2023-05-04T20:57:48.261Z,63.75
2023-05-04T21:00:15.355Z,64.03
2023-05-04T21:02:42.620Z,63.98
2023-05-04T21:05:09.506Z,64.31
2023-05-04T21:07:36.331Z,63.96
2023-05-04T21:10:03.666Z,64.15
2023-05-04T21:12:30.378Z,63.98
2023-05-04T21:14:57.097Z,64.20
2023-05-04T21:17:25.556Z,64.27
2023-05-04T21:19:52.264Z,65.26
2023-05-04T21:22:18.936Z,66.38
2023-05-04T21:24:46.692Z,67.10
2023-05-04T21:27:14.078Z,68.49
2023-05-04T21:29:40.760Z,69.33
2023-05-04T21:32:07.406Z,70.82
2023-05-04T21:34:34.102Z,70.78
2023-05-04T21:37:00.882Z,70.60
2023-05-04T21:39:27.506Z,71.05
2023-05-04T21:41:54.203Z,70.75
2023-05-04T21:44:20.813Z,71.19
2023-05-04T21:46:47.462Z,71.57
2023-05-04T21:49:14.218Z,72.46
2023-05-04T21:51:42.626Z,72.95
2023-05-04T21:54:09.239Z,73.80
2023-05-04T21:56:35.917Z,74.83
2023-05-04T21:59:03.118Z,74.89
2023-05-04T22:01:29.826Z,75.93
2023-05-04T22:03:56.834Z,76.77
2023-05-04T22:06:24.694Z,76.90
2023-05-04T22:08:51.717Z,76.44
2023-05-04T22:11:18.595Z,76.70
2023-05-04T22:13:45.292Z,76.93
2023-05-04T22:16:12.158Z,77.42
2023-05-04T22:18:38.817Z,77.70
2023-05-04T22:21:05.684Z,77.96
2023-05-04T22:23:32.697Z,78.46
2023-05-04T22:25:59.375Z,79.13
2023-05-04T22:28:26.420Z,80.36
2023-05-04T22:30:53.160Z,80.81
2023-05-04T22:33:20.017Z,81.57
2023-05-04T22:35:46.742Z,82.61
2023-05-04T22:38:14.649Z,82.25
2023-05-04T22:40:43.021Z,82.97
2023-05-04T22:43:11.788Z,83.03
2023-05-04T22:45:39.098Z,83.86
2023-05-04T22:48:05.854Z,84.03
2023-05-04T22:50:32.644Z,84.32
2023-05-04T22:52:59.346Z,84.66
2023-05-04T22:55:26.053Z,85.06
2023-05-04T22:57:52.785Z,85.27
2023-05-04T23:00:20.144Z,85.91
2023-05-04T23:02:47.235Z,85.96
2023-05-04T23:05:13.935Z,86.06
2023-05-04T23:07:40.883Z,86.27
2023-05-04T23:10:08.187Z,85.77
2023-05-04T23:12:35.054Z,85.86
2023-05-04T23:15:01.839Z,86.35
2023-05-04T23:17:28.530Z,86.23
2023-05-04T23:19:55.198Z,86.53
2023-05-04T23:22:21.845Z,86.08
2023-05-04T23:24:48.525Z,86.82
2023-05-04T23:27:15.240Z,87.16
2023-05-04T23:29:41.875Z,86.84
2023-05-04T23:32:08.647Z,87.01
2023-05-04T23:34:35.278Z,87.34
2023-05-04T23:37:01.977Z,87.55
2023-05-04T23:39:28.819Z,87.73
2023-05-04T23:41:55.581Z,87.63
2023-05-04T23:44:22.464Z,87.04
2023-05-04T23:46:49.220Z,86.98
2023-05-04T23:49:16.542Z,87.44
2023-05-04T23:51:43.678Z,87.91
2023-05-04T23:54:10.571Z,88.21
2023-05-04T23:56:37.203Z,88.24
2023-05-04T23:59:04.016Z,88.54
